EDT,Max TemperatureF,Mean TemperatureF,Min TemperatureF,Max Dew PointF,MeanDew PointF,Min DewpointF,Max Humidity, Mean Humidity, Min Humidity, Max Sea Level PressureIn, Mean Sea Level PressureIn, Min Sea Level PressureIn, Max VisibilityMiles, Mean VisibilityMiles, Min VisibilityMiles, Max Wind SpeedMPH, Mean Wind SpeedMPH, Max Gust SpeedMPH,PrecipitationIn, CloudCover, Events, WindDirDegrees
2011-10-1,82,77,73,70,60,54,72,57,42,29.97,29.88,29.80,10,10,10,17,10,23,0.00,0,,1
2011-10-2,80,73,66,56,53,50,63,50,35,30.05,30.00,29.96,10,10,10,18,12,,0.00,0,,27
2011-10-3,82,74,66,65,60,55,75,62,51,30.11,30.06,30.04,10,10,10,12,8,,0.00,0,,33
2011-10-4,82,77,72,67,64,61,81,65,49,30.16,30.10,30.04,10,10,10,18,14,,0.00,0,,70
2011-10-5,82,77,72,69,67,65,79,70,62,30.12,30.08,30.03,10,10,10,21,15,,0.00,1,,74
2011-10-6,84,76,71,70,68,67,87,74,60,30.10,30.06,30.02,10,10,10,18,12,,0.00,1,,66
2011-10-7,82,78,73,72,70,68,90,81,65,30.12,30.08,30.04,10,10,10,24,15,,0.00,1,Thunderstorm,64
2011-10-8,78,74,71,72,70,68,100,87,74,30.09,30.04,29.99,10,9,4,37,23,47,0.09,4,Rain,76
2011-10-9,73,72,71,73,72,70,100,96,88,29.99,29.90,29.82,10,7,1,29,18,36,1.03,8,Rain,55
2011-10-10,80,74,69,74,71,69,100,91,72,29.82,29.79,29.75,10,10,10,12,5,,0.00,3,,252
2011-10-11,81,77,73,75,73,69,100,89,67,29.84,29.79,29.75,10,10,10,14,5,20,0.00,3,,213
2011-10-12,82,78,75,75,72,69,96,81,67,29.86,29.83,29.79,10,10,10,13,5,18,0.00,1,,249
2011-10-13,82,76,71,76,73,69,96,87,71,29.82,29.79,29.73,10,9,1,12,4,,0.00,3,Rain,262
2011-10-14,84,78,73,73,66,58,88,71,47,29.98,29.88,29.81,10,10,10,15,6,,0.00,0,,359
2011-10-15,80,76,73,69,66,60,87,72,54,30.08,30.02,29.96,10,10,10,20,12,,0.00,0,,72
2011-10-16,82,78,73,72,69,67,85,77,66,30.09,30.03,29.97,10,10,10,17,13,,0.00,0,,78
2011-10-17,80,78,75,73,72,70,89,83,76,29.99,29.92,29.85,10,10,10,16,12,,0.00,2,,107
2011-10-18,80,76,75,79,74,71,100,91,83,29.85,29.68,29.53,10,10,2,22,14,23,0.16,7,Rain,156
2011-10-19,80,75,70,79,69,53,94,80,53,29.87,29.63,29.51,10,10,3,20,11,31,0.04,7,Rain,283
2011-10-20,71,66,61,58,53,50,75,64,51,30.08,30.01,29.88,10,10,10,14,8,24,0.00,6,Rain,12
2011-10-21,71,66,63,57,52,50,81,64,51,30.15,30.10,30.05,10,10,10,17,8,17,0.00,2,,49
2011-10-22,73,65,57,57,51,45,78,60,42,30.09,30.03,29.97,10,10,10,15,8,,0.00,0,,21
2011-10-23,77,70,64,58,57,55,78,66,50,30.05,30.01,29.97,10,10,10,18,10,,0.00,2,,35
2011-10-24,75,70,64,62,60,56,90,74,51,30.13,30.06,30.01,10,10,10,13,7,,0.00,0,,8
2011-10-25,77,70,64,66,62,58,87,75,63,30.17,30.12,30.07,10,10,10,13,9,,0.00,0,,69
2011-10-26,82,74,66,67,65,63,87,73,54,30.09,30.02,29.94,10,10,10,12,6,,0.00,1,,41
2011-10-27,82,76,69,70,66,62,87,76,51,29.97,29.93,29.87,10,10,10,8,5,,0.00,2,Rain,148
2011-10-28,75,72,71,72,71,67,100,92,81,29.95,29.90,29.85,10,10,7,13,8,,0.06,5,Rain,75
2011-10-29,75,72,69,72,69,63,100,91,73,30.00,29.86,29.80,10,10,7,20,9,25,0.02,7,Rain,32
2011-10-30,75,66,60,66,61,54,97,77,70,30.09,30.04,30.00,10,10,9,25,19,31,0.02,5,Rain,69
2011-10-31,75,70,66,67,65,63,100,87,64,30.07,30.01,29.96,10,9,3,21,15,26,0.21,6,Rain,46